Honeydew, California
Current Conditions -  °F | °C
As of 8:30 AM on Thursday 23 Oct 2014 (Local Time) from KFOT Reporting Station
Broken Clouds Broken Clouds  
Wind Chill: 59°   Ceiling: 2600
Heat Index: 59°   Visibility: 4mi
Dew Point: 59°   Wind: 18mph
Humidity: 100%   Direction: 130°SE
Pressure: 29.93"   Gusts: NA
Location:  40.24°N, 124.13°W
Report Text: KFOT 231530Z AUTO 13016KT 4SM SCT003 BKN026 15/15 A2993 RMK AO1 P0030
Loading
Personal Weather Stations






























Interactive Weather Map
Tropical Storm Tracking
New forecast layout! Learn more

10-Day Weather Forecast

Advertisements
Track Severe Weather on mobile